Latest Weather Observations for Solomon Airport

IDW60801

Issued at 4:43 am WST Saturday 19 September 2020 (issued every 10 minutes, with the page automatically refreshed every 10 minutes)

About weather observations | Map of weather stations | Latest weather observations for WA | Other Formats
Station Details ID: 505060 Name: SOLOMON AIRPORT Lat: -22.25 Lon: 117.85 Height: 611.47 m
Data from the previous 72 hours. | See also: Recent months for locations in Western Australia
Date/Time
WST
Temp
°C
App
Temp
°C
Dew
Point
°C
Rel
Hum
%
Delta-T
°C
Wind Press
QNH
hPa
Press
MSL
hPa
Rain since
9am
mm
Dir  Spd
km/h
Gust
km/h
Spd
kts
Gust
kts
19/04:30am 17.5 16.0 7.0 50 5.4 W 4 7 2 4 1013.5 1010.0 0.0
19/04:00am 17.5 15.7 7.3 51 5.3 WNW 6 7 3 4 1013.4 1009.9 0.0
19/03:30am 17.8 15.8 7.0 49 5.6 WSW 7 9 4 5 1013.2 1009.7 0.0
19/03:00am 18.5 16.7 7.3 48 5.8 WNW 6 7 3 4 1013.4 1009.9 0.0
19/02:30am 18.6 17.2 7.4 48 5.9 W 4 6 2 3 1013.5 1010.0 0.0
19/02:00am 18.5 17.6 7.9 50 5.6 WNW 2 4 1 2 1014.0 1010.5 0.0
19/01:30am 18.2 16.1 6.7 47 5.9 S 7 9 4 5 1014.0 1010.5 0.0
19/01:00am 19.9 18.3 7.9 46 6.4 W 6 9 3 5 1014.4 1010.9 0.0
19/12:30am 19.7 18.1 7.8 46 6.3 WSW 6 6 3 3 1014.6 1011.1 0.0
19/12:00am 22.5 21.3 9.6 44 7.2 WNW 6 9 3 5 1014.9 1011.4 0.0
 
Date/Time
WST
Temp
°C
App
Temp
°C
Dew
Point
°C
Rel
Hum
%
Delta-T
°C
Wind Press
QNH
hPa
Press
MSL
hPa
Rain since
9am
mm
Dir  Spd
km/h
Gust
km/h
Spd
kts
Gust
kts
18/11:30pm 23.0 21.4 10.1 44 7.3 WNW 9 13 5 7 1014.9 1011.4 0.0
18/11:00pm 23.3 21.2 9.7 42 7.6 NW 11 15 6 8 1015.0 1011.5 0.0
18/10:30pm 23.8 20.8 9.4 40 8.0 NW 15 24 8 13 1014.8 1011.3 0.0
18/10:00pm 24.2 20.2 9.0 38 8.4 NW 20 28 11 15 1014.8 1011.3 0.0
18/09:30pm 24.8 20.0 8.7 36 8.9 NW 24 30 13 16 1014.8 1011.3 0.0
18/09:00pm 25.7 20.6 5.8 28 10.5 NNW 22 30 12 16 1014.4 1010.9 0.0
18/08:30pm 27.2 22.5 -1.7 15 13.5 NW 13 19 7 10 1014.2 1010.7 0.0
18/08:00pm 27.5 22.7 -2.3 14 13.8 WNW 13 19 7 10 1014.1 1010.6 0.0
18/07:30pm 28.0 22.9 -2.0 14 14.0 NW 15 20 8 11 1014.0 1010.5 0.0
18/07:00pm 28.2 23.1 -1.8 14 14.1 WNW 15 20 8 11 1013.8 1010.3 0.0
18/06:30pm 28.7 23.5 -2.4 13 14.5 WNW 15 24 8 13 1013.6 1010.1 0.0
18/06:00pm 29.3 24.2 -1.9 13 14.8 WNW 15 19 8 10 1013.3 1009.8 0.0
18/05:30pm 30.1 24.6 -2.4 12 15.3 WNW 17 24 9 13 1013.2 1009.7 0.0
18/05:00pm 30.3 25.2 -2.2 12 15.4 W 15 28 8 15 1013.0 1009.5 0.0
18/04:30pm 30.1 25.3 -2.4 12 15.3 NW 13 24 7 13 1013.1 1009.6 0.0
18/04:00pm 30.4 25.3 -2.2 12 15.5 NNW 15 32 8 17 1013.1 1009.6 0.0
18/03:30pm 30.3 24.8 -2.2 12 15.4 NW 17 24 9 13 1013.4 1009.9 0.0
18/03:00pm 29.7 24.1 -2.7 12 15.2 WNW 17 32 9 17 1013.7 1010.2 0.0
18/02:30pm 28.9 23.6 -3.3 12 14.8 NW 15 37 8 20 1014.1 1010.6 0.0
18/02:00pm 29.1 23.6 -2.1 13 14.7 NW 17 30 9 16 1014.5 1011.0 0.0
18/01:30pm 29.1 23.7 -1.1 14 14.5 NNW 17 28 9 15 1014.9 1011.4 0.0
18/01:00pm 27.6 23.1 -0.5 16 13.5 N 13 20 7 11 1015.2 1011.7 0.0
18/12:30pm 27.1 21.8 -0.9 16 13.3 N 17 32 9 17 1015.9 1012.4 0.0
18/12:00pm 26.3 21.1 0.1 18 12.6 N 17 28 9 15 1016.4 1012.9 0.0
18/11:30am 25.2 19.5 -0.8 18 12.2 N 19 30 10 16 1017.0 1013.6 0.0
18/11:00am 24.6 18.9 -0.5 19 11.8 NE 19 30 10 16 1017.2 1013.8 0.0
18/10:30am 23.9 18.0 -1.1 19 11.5 NE 20 32 11 17 1017.3 1013.9 0.0
18/10:00am 22.1 15.1 -0.6 22 10.4 ENE 26 37 14 20 1017.6 1014.1 0.0
18/09:30am 21.5 14.5 -0.5 23 10.1 ENE 26 37 14 20 1017.7 1014.2 0.0
18/09:00am 20.0 11.9 -0.6 25 9.3 ENE 32 44 17 24 1017.7 1014.2 0.0
18/08:30am 19.2 11.0 -0.7 26 8.9 ENE 32 46 17 25 1017.7 1014.2 0.0
18/08:11am 19.2 11.4 -0.7 26 8.9 ENE 30 48 16 26 1017.6 1014.1 0.0
18/08:00am 18.7 11.3 -0.7 27 8.6 NE 28 37 15 20 1017.5 1014.0 0.0
18/07:30am 18.1 12.3 -1.2 27 8.5 NE 19 30 10 16 1017.1 1013.7 0.0
18/07:00am 17.4 12.5 -0.8 29 8.0 NE 15 24 8 13 1016.7 1013.2 0.0
18/06:30am 16.8 10.9 -0.9 30 7.7 NE 20 30 11 16 1016.3 1012.8 0.0
18/06:00am 16.7 10.8 -0.9 30 7.7 NE 20 35 11 19 1015.8 1012.3 0.0
18/05:30am 17.1 10.7 -1.5 28 8.0 NE 22 32 12 17 1015.4 1012.0 0.0
18/05:00am 17.3 10.9 -1.9 27 8.2 NE 22 32 12 17 1015.1 1011.6 0.0
18/04:30am 17.7 10.5 -2.0 26 8.5 NE 26 39 14 21 1015.0 1011.5 0.0
18/04:00am 18.1 11.9 -2.8 24 8.9 NE 20 33 11 18 1014.9 1011.4 0.0
18/03:30am 18.4 11.8 -3.7 22 9.2 NE 22 32 12 17 1014.8 1011.3 0.0
18/03:00am 19.0 13.3 -3.8 21 9.6 NE 17 24 9 13 1015.2 1011.7 0.0
18/02:30am 19.6 13.3 -3.9 20 9.9 NE 20 30 11 16 1015.1 1011.6 0.0
18/02:00am 20.0 14.3 -3.6 20 10.0 NE 17 24 9 13 1015.2 1011.7 0.0
18/01:30am 20.5 14.9 -2.5 21 10.0 NE 17 24 9 13 1015.4 1012.0 0.0
18/01:00am 21.2 16.6 -0.7 23 10.0 NE 13 19 7 10 1015.4 1012.0 0.0
18/12:30am 21.8 17.4 0.4 24 10.0 NE 13 19 7 10 1015.5 1012.1 0.0
18/12:00am 22.3 17.6 0.8 24 10.1 NE 15 19 8 10 1015.8 1012.3 0.0
 
Date/Time
WST
Temp
°C
App
Temp
°C
Dew
Point
°C
Rel
Hum
%
Delta-T
°C
Wind Press
QNH
hPa
Press
MSL
hPa
Rain since
9am
mm
Dir  Spd
km/h
Gust
km/h
Spd
kts
Gust
kts
17/11:30pm 22.7 18.3 0.5 23 10.5 NE 13 20 7 11 1015.8 1012.3 0.0
17/11:00pm 22.2 18.9 -1.1 21 10.6 NNE 6 9 3 5 1015.9 1012.4 0.0
17/10:47pm 22.8 19.8 -2.0 19 11.1 NNW 4 6 2 3 1016.0 1012.5 0.0
17/10:30pm 22.5 19.5 -2.2 19 11.0 NNE 4 6 2 3 1016.1 1012.6 0.0
17/10:28pm 22.5 19.5 -2.2 19 11.0 NE 4 7 2 4 1016.1 1012.6 0.0
17/10:00pm 24.2 20.2 -2.4 17 12.0 E 9 15 5 8 1016.2 1012.7 0.0
17/09:30pm 23.0 19.3 -2.6 18 11.4 N 7 11 4 6 1016.0 1012.5 0.0
17/09:00pm 23.7 20.6 -2.8 17 11.8 W 4 6 2 3 1015.6 1012.2 0.0
17/08:30pm 23.6 20.1 -2.8 17 11.8 SW 6 9 3 5 1015.4 1012.0 0.0
17/08:00pm 24.7 21.2 -2.8 16 12.4 SW 6 11 3 6 1015.2 1011.7 0.0
17/07:30pm 25.8 22.1 -2.8 15 13.0 S 7 11 4 6 1015.0 1011.5 0.0
17/07:00pm 26.9 22.8 -2.8 14 13.6 SW 9 15 5 8 1014.5 1011.0 0.0
17/06:30pm 28.2 22.2 -2.8 13 14.3 SSW 19 28 10 15 1014.1 1010.6 0.0
17/06:00pm 29.4 23.4 -1.9 13 14.8 SSW 20 26 11 14 1013.6 1010.1 0.0
17/05:30pm 30.9 24.1 -1.8 12 15.7 SW 24 35 13 19 1013.1 1009.6 0.0
17/05:00pm 31.4 23.9 -1.4 12 15.9 SSW 28 35 15 19 1012.8 1009.3 0.0
17/04:30pm 32.2 25.2 -0.8 12 16.2 SW 26 35 14 19 1012.5 1008.9 0.0
17/04:00pm 32.5 25.0 -1.7 11 16.6 SW 28 39 15 21 1012.1 1008.6 0.0
17/03:30pm 33.2 25.7 -1.2 11 16.9 SW 28 37 15 20 1012.0 1008.5 0.0
17/03:00pm 33.4 26.7 -1.0 11 17.0 SW 24 43 13 23 1012.3 1008.7 0.0
17/02:30pm 34.1 27.5 -0.5 11 17.3 SW 24 37 13 20 1012.5 1008.9 0.0
17/02:08pm 33.4 25.6 -1.0 11 17.0 SW 30 48 16 26 1012.8 1009.3 0.0
17/02:00pm 34.0 26.6 -0.6 11 17.3 SW 28 44 15 24 1012.8 1009.3 0.0
17/01:48pm 33.4 26.0 -1.0 11 17.0 SW 28 46 15 25 1012.9 1009.4 0.0
17/01:30pm 33.2 25.0 -1.2 11 16.9 SW 32 46 17 25 1013.1 1009.6 0.0
17/01:01pm 33.4 26.0 -1.0 11 17.0 SW 28 46 15 25 1013.3 1009.8 0.0
17/01:00pm 33.5 26.1 -1.0 11 17.1 SW 28 44 15 24 1013.4 1009.9 0.0
17/12:30pm 33.4 26.0 -1.0 11 17.0 SW 28 41 15 22 1014.0 1010.5 0.0
17/12:00pm 32.6 24.8 -0.5 12 16.4 SW 30 44 16 24 1014.7 1011.2 0.0
17/11:30am 32.2 25.4 -2.0 11 16.5 SW 24 32 13 17 1015.1 1011.6 0.0
17/11:00am 31.0 24.2 -1.7 12 15.7 SW 24 32 13 17 1015.8 1012.3 0.0
17/10:30am 29.9 25.0 -0.5 14 14.8 SW 15 26 8 14 1016.2 1012.7 0.0
17/10:00am 28.8 23.3 0.5 16 13.9 SW 19 26 10 14 1016.5 1013.0 0.0
17/09:30am 26.8 22.2 1.3 19 12.6 SSW 15 22 8 12 1016.6 1013.1 0.0
17/09:00am 26.2 20.8 1.5 20 12.1 S 19 26 10 14 1016.8 1013.3 0.0
17/08:30am 25.1 19.4 0.6 20 11.8 SSW 20 28 11 15 1016.9 1013.5 0.0
17/08:00am 24.1 19.7 0.4 21 11.2 SSW 13 22 7 12 1016.6 1013.1 0.0
17/07:30am 21.7 17.7 0.3 24 10.0 WSW 11 15 6 8 1016.5 1013.0 0.0
17/07:00am 20.6 16.5 -0.1 25 9.5 WSW 11 15 6 8 1016.3 1012.8 0.0
17/06:30am 20.0 15.6 0.5 27 9.0 W 13 15 7 8 1016.1 1012.6 0.0
17/06:00am 19.8 15.7 -0.2 26 9.1 WSW 11 15 6 8 1015.9 1012.4 0.0
17/05:30am 20.4 15.9 -0.3 25 9.4 W 13 17 7 9 1015.6 1012.2 0.0
17/05:00am 20.3 15.8 -0.3 25 9.4 W 13 15 7 8 1015.4 1012.0 0.0
17/04:30am 20.8 17.1 0.1 25 9.5 W 9 13 5 7 1015.2 1011.7 0.0
17/04:00am 20.3 16.3 0.2 26 9.2 W 11 13 6 7 1014.9 1011.4 0.0
17/03:30am 19.7 16.6 0.2 27 8.9 WSW 6 9 3 5 1014.8 1011.3 0.0
17/03:00am 20.1 17.4 0.0 26 9.2 W 4 6 2 3 1015.0 1011.5 0.0
17/02:30am 20.6 17.5 -0.1 25 9.5 WSW 6 7 3 4 1015.1 1011.6 0.0
17/02:00am 21.2 19.2 -0.1 24 9.8 CALM 0 4 0 2 1015.5 1012.1 0.0
17/01:30am 21.3 18.2 -0.1 24 9.9 SW 6 6 3 3 1015.4 1012.0 0.0
17/01:00am 22.5 19.8 0.4 23 10.4 SSW 4 6 2 3 1015.8 1012.3 0.0
17/12:30am 23.9 20.8 0.3 21 11.2 W 6 7 3 4 1016.1 1012.6 0.0
17/12:00am 24.6 20.6 0.2 20 11.6 WSW 11 15 6 8 1016.5 1013.0 0.0
 
Date/Time
WST
Temp
°C
App
Temp
°C
Dew
Point
°C
Rel
Hum
%
Delta-T
°C
Wind Press
QNH
hPa
Press
MSL
hPa
Rain since
9am
mm
Dir  Spd
km/h
Gust
km/h
Spd
kts
Gust
kts
16/11:30pm 24.9 21.3 0.4 20 11.7 WSW 9 13 5 7 1016.7 1013.2 0.0
16/11:00pm 26.9 22.2 0.6 18 12.8 WSW 15 19 8 10 1016.8 1013.3 0.0
16/10:30pm 28.7 23.1 1.3 17 13.7 WSW 20 26 11 14 1016.7 1013.2 0.0
16/10:00pm 28.8 24.3 2.1 18 13.5 WNW 15 22 8 12 1016.5 1013.0 0.0
16/09:30pm 28.6 24.0 3.5 20 13.0 NNW 17 24 9 13 1016.1 1012.6 0.0
16/09:00pm 29.6 24.6 3.6 19 13.5 NNW 19 30 10 16 1016.0 1012.5 0.0
16/08:30pm 30.1 25.3 2.4 17 14.2 NNW 17 26 9 14 1015.8 1012.3 0.0
16/08:00pm 28.9 25.2 -0.3 15 14.2 W 9 11 5 6 1015.4 1012.0 0.0
16/07:30pm 30.0 26.2 -0.4 14 14.8 W 9 13 5 7 1015.1 1011.6 0.0
16/07:00pm 30.7 26.9 -0.8 13 15.3 W 9 11 5 6 1014.8 1011.3 0.0
16/06:30pm 31.5 27.8 -0.2 13 15.7 SW 9 15 5 8 1014.4 1010.9 0.0
16/06:00pm 32.9 28.0 -0.2 12 16.5 SW 15 20 8 11 1014.1 1010.6 0.0
16/05:30pm 34.1 30.5 0.7 12 17.1 SW 9 13 5 7 1013.8 1010.3 0.0
16/05:00pm 34.2 29.9 0.8 12 17.1 WSW 13 19 7 10 1013.7 1010.2 0.0
16/04:30pm 33.9 29.5 0.5 12 17.0 SW 13 19 7 10 1013.7 1010.2 0.0
16/04:00pm 35.1 30.7 0.2 11 17.8 WNW 13 24 7 13 1013.6 1010.1 0.0
16/03:30pm 34.5 30.8 -0.2 11 17.5 SSW 9 17 5 9 1013.8 1010.3 0.0
16/03:00pm 34.8 31.7 0.0 11 17.6 SSE 6 11 3 6 1014.1 1010.6 0.0
16/02:30pm 35.0 31.0 0.2 11 17.7 W 11 24 6 13 1014.3 1010.8 0.0
16/02:00pm 34.9 31.6 0.1 11 17.7 SW 7 19 4 10 1014.7 1011.2 0.0
16/01:30pm 34.1 30.9 0.7 12 17.1 NNW 7 19 4 10 1015.2 1011.7 0.0
16/01:00pm 34.7 30.0 1.1 12 17.3 WNW 15 24 8 13 1015.6 1012.2 0.0
16/12:30pm 34.1 30.1 0.7 12 17.1 N 11 20 6 11 1016.2 1012.7 0.0
16/12:00pm 34.2 31.2 0.8 12 17.1 NNW 6 15 3 8 1016.7 1013.2 0.0
16/11:30am 33.3 29.8 1.2 13 16.4 NW 9 19 5 10 1017.2 1013.8 0.0
16/11:00am 32.8 29.2 0.8 13 16.2 E 9 17 5 9 1017.9 1014.4 0.0
16/10:30am 32.5 29.6 1.6 14 15.9 NW 6 13 3 7 1018.3 1014.8 0.0
16/10:00am 31.3 28.4 2.5 16 14.9 SSW 7 19 4 10 1018.7 1015.3 0.0
16/09:30am 29.3 26.4 2.5 18 13.7 SSW 7 13 4 7 1019.3 1015.8 0.0
16/09:00am 27.8 25.1 2.8 20 12.7 SW 6 11 3 6 1019.4 1015.9 0.0
16/08:30am 26.5 23.7 3.1 22 11.9 WSW 7 11 4 6 1019.5 1016.0 0.0
16/08:00am 24.9 22.2 3.5 25 10.8 WSW 7 11 4 6 1019.4 1015.9 0.0
16/07:30am 23.1 20.6 3.6 28 9.8 W 6 7 3 4 1019.2 1015.7 0.0
16/07:00am 20.7 18.1 3.4 32 8.5 W 6 6 3 3 1018.6 1015.2 0.0
16/06:30am 19.0 16.6 2.4 33 7.9 WNW 4 6 2 3 1018.3 1014.8 0.0
16/06:00am 20.5 18.0 3.7 33 8.3 NW 6 6 3 3 1018.0 1014.5 0.0
16/05:30am 19.4 17.6 3.6 35 7.7 WSW 2 4 1 2 1017.8 1014.3 0.0
16/05:00am 18.8 17.2 2.2 33 7.8 CALM 0 4 0 2 1017.3 1013.9 0.0

Other formats

Comma delimited format used in spreadsheet applications
http://www.bom.gov.au/fwo/IDW60801/IDW60801.99217.axf

JavaScript Object Notation format (JSON) in row-major order
http://www.bom.gov.au/fwo/IDW60801/IDW60801.99217.json

Data quality

Most of these data are generated automatically and are frequently updated. Quality checks on data are not normally performed. It is possible for incorrect values to appear. Refer to information at About Latest Weather Observations and please check the disclaimer before using these data.